sensor_id;sensor_type;location;lat;lon;timestamp;temperature;humidity
55369;DHT22;41247;49.736;8.752;2023-05-14T00:02:02;9.50;99.90
55369;DHT22;41247;49.736;8.752;2023-05-14T00:05:43;9.40;99.90
55369;DHT22;41247;49.736;8.752;2023-05-14T00:09:23;9.40;99.90
55369;DHT22;41247;49.736;8.752;2023-05-14T00:13:04;9.30;99.90
55369;DHT22;41247;49.736;8.752;2023-05-14T00:16:44;9.30;99.90
55369;DHT22;41247;49.736;8.752;2023-05-14T00:20:25;9.30;99.90
55369;DHT22;41247;49.736;8.752;2023-05-14T00:24:06;9.30;99.90
55369;DHT22;41247;49.736;8.752;2023-05-14T00:27:46;9.30;99.90
55369;DHT22;41247;49.736;8.752;2023-05-14T00:31:27;9.20;99.90
55369;DHT22;41247;49.736;8.752;2023-05-14T00:35:08;9.20;99.90
55369;DHT22;41247;49.736;8.752;2023-05-14T00:38:48;9.20;99.90
55369;DHT22;41247;49.736;8.752;2023-05-14T00:42:29;9.20;99.90
55369;DHT22;41247;49.736;8.752;2023-05-14T00:46:10;9.20;99.90
55369;DHT22;41247;49.736;8.752;2023-05-14T00:49:51;9.30;99.90
55369;DHT22;41247;49.736;8.752;2023-05-14T00:53:32;9.20;99.90
55369;DHT22;41247;49.736;8.752;2023-05-14T00:57:13;9.20;99.90
55369;DHT22;41247;49.736;8.752;2023-05-14T01:00:53;9.20;99.90
55369;DHT22;41247;49.736;8.752;2023-05-14T01:04:34;9.20;99.90
55369;DHT22;41247;49.736;8.752;2023-05-14T01:08:26;9.10;99.90
55369;DHT22;41247;49.736;8.752;2023-05-14T01:16:39;9.00;99.90
55369;DHT22;41247;49.736;8.752;2023-05-14T01:20:20;8.90;99.90
55369;DHT22;41247;49.736;8.752;2023-05-14T01:24:01;8.90;99.90
55369;DHT22;41247;49.736;8.752;2023-05-14T01:27:52;8.80;99.90
55369;DHT22;41247;49.736;8.752;2023-05-14T01:31:44;8.80;99.90
55369;DHT22;41247;49.736;8.752;2023-05-14T01:35:28;8.80;99.90
55369;DHT22;41247;49.736;8.752;2023-05-14T01:39:11;8.70;99.90
55369;DHT22;41247;49.736;8.752;2023-05-14T01:42:53;8.70;99.90
55369;DHT22;41247;49.736;8.752;2023-05-14T01:46:34;8.60;99.90
55369;DHT22;41247;49.736;8.752;2023-05-14T01:50:15;8.60;99.90
55369;DHT22;41247;49.736;8.752;2023-05-14T01:53:56;8.60;99.90
55369;DHT22;41247;49.736;8.752;2023-05-14T01:57:37;8.50;99.90
55369;DHT22;41247;49.736;8.752;2023-05-14T02:01:17;8.60;99.90
55369;DHT22;41247;49.736;8.752;2023-05-14T02:04:58;8.50;99.90
55369;DHT22;41247;49.736;8.752;2023-05-14T02:08:38;8.60;99.90
55369;DHT22;41247;49.736;8.752;2023-05-14T02:12:19;8.50;99.90
55369;DHT22;41247;49.736;8.752;2023-05-14T02:15:59;8.50;99.90
55369;DHT22;41247;49.736;8.752;2023-05-14T02:19:40;8.50;99.90
55369;DHT22;41247;49.736;8.752;2023-05-14T02:23:21;8.50;99.90
55369;DHT22;41247;49.736;8.752;2023-05-14T02:27:01;8.50;99.90
55369;DHT22;41247;49.736;8.752;2023-05-14T02:30:42;8.50;99.90
55369;DHT22;41247;49.736;8.752;2023-05-14T02:34:23;8.50;99.90
55369;DHT22;41247;49.736;8.752;2023-05-14T02:38:03;8.40;99.90
55369;DHT22;41247;49.736;8.752;2023-05-14T02:41:44;8.40;99.90
55369;DHT22;41247;49.736;8.752;2023-05-14T02:45:24;8.30;99.90
55369;DHT22;41247;49.736;8.752;2023-05-14T02:49:05;8.30;99.90
55369;DHT22;41247;49.736;8.752;2023-05-14T02:52:45;8.30;99.90
55369;DHT22;41247;49.736;8.752;2023-05-14T02:56:26;8.20;99.90
55369;DHT22;41247;49.736;8.752;2023-05-14T03:00:07;8.20;99.90
55369;DHT22;41247;49.736;8.752;2023-05-14T03:03:48;8.20;99.90
55369;DHT22;41247;49.736;8.752;2023-05-14T03:07:28;8.10;99.90
55369;DHT22;41247;49.736;8.752;2023-05-14T03:11:09;8.10;99.90
55369;DHT22;41247;49.736;8.752;2023-05-14T03:14:50;8.10;99.90
55369;DHT22;41247;49.736;8.752;2023-05-14T03:18:30;8.10;99.90
55369;DHT22;41247;49.736;8.752;2023-05-14T03:22:11;8.10;99.90
55369;DHT22;41247;49.736;8.752;2023-05-14T03:25:51;8.10;99.90
55369;DHT22;41247;49.736;8.752;2023-05-14T03:29:32;8.10;99.90
55369;DHT22;41247;49.736;8.752;2023-05-14T03:33:13;8.10;99.90
55369;DHT22;41247;49.736;8.752;2023-05-14T03:36:53;8.10;99.90
55369;DHT22;41247;49.736;8.752;2023-05-14T03:40:34;8.00;99.90
55369;DHT22;41247;49.736;8.752;2023-05-14T03:44:14;8.00;99.90
55369;DHT22;41247;49.736;8.752;2023-05-14T03:47:55;8.00;99.90
55369;DHT22;41247;49.736;8.752;2023-05-14T03:51:36;7.90;99.90
55369;DHT22;41247;49.736;8.752;2023-05-14T03:55:20;7.90;99.90
55369;DHT22;41247;49.736;8.752;2023-05-14T03:59:00;8.00;99.90
55369;DHT22;41247;49.736;8.752;2023-05-14T04:02:41;8.00;99.90
55369;DHT22;41247;49.736;8.752;2023-05-14T04:06:22;8.00;99.90
55369;DHT22;41247;49.736;8.752;2023-05-14T04:10:03;8.00;99.90
55369;DHT22;41247;49.736;8.752;2023-05-14T04:13:44;8.00;99.90
55369;DHT22;41247;49.736;8.752;2023-05-14T04:17:24;8.00;99.90
55369;DHT22;41247;49.736;8.752;2023-05-14T04:21:05;8.00;99.90
55369;DHT22;41247;49.736;8.752;2023-05-14T04:24:46;8.10;99.90
55369;DHT22;41247;49.736;8.752;2023-05-14T04:28:26;8.10;99.90
55369;DHT22;41247;49.736;8.752;2023-05-14T04:32:07;8.20;99.90
55369;DHT22;41247;49.736;8.752;2023-05-14T04:35:47;8.30;99.90
55369;DHT22;41247;49.736;8.752;2023-05-14T04:39:28;8.40;99.90
55369;DHT22;41247;49.736;8.752;2023-05-14T04:43:09;8.50;99.90
55369;DHT22;41247;49.736;8.752;2023-05-14T04:46:49;8.60;99.90
55369;DHT22;41247;49.736;8.752;2023-05-14T04:50:30;8.70;99.90
55369;DHT22;41247;49.736;8.752;2023-05-14T04:54:11;8.80;99.90
55369;DHT22;41247;49.736;8.752;2023-05-14T04:57:51;8.80;99.90
55369;DHT22;41247;49.736;8.752;2023-05-14T05:01:32;8.90;99.90
55369;DHT22;41247;49.736;8.752;2023-05-14T05:05:13;8.90;99.90
55369;DHT22;41247;49.736;8.752;2023-05-14T05:08:54;9.00;99.90
55369;DHT22;41247;49.736;8.752;2023-05-14T05:12:35;9.10;99.90
55369;DHT22;41247;49.736;8.752;2023-05-14T05:16:15;9.10;99.90
55369;DHT22;41247;49.736;8.752;2023-05-14T05:19:56;9.20;99.90
55369;DHT22;41247;49.736;8.752;2023-05-14T05:23:37;9.30;99.90
55369;DHT22;41247;49.736;8.752;2023-05-14T05:27:17;9.30;99.90
55369;DHT22;41247;49.736;8.752;2023-05-14T05:30:58;9.40;99.90
55369;DHT22;41247;49.736;8.752;2023-05-14T05:34:40;9.50;99.90
55369;DHT22;41247;49.736;8.752;2023-05-14T05:38:20;9.60;99.90
55369;DHT22;41247;49.736;8.752;2023-05-14T05:42:01;9.70;99.90
55369;DHT22;41247;49.736;8.752;2023-05-14T05:45:42;9.80;99.90
55369;DHT22;41247;49.736;8.752;2023-05-14T05:49:23;9.90;99.90
55369;DHT22;41247;49.736;8.752;2023-05-14T05:53:03;10.00;99.90
55369;DHT22;41247;49.736;8.752;2023-05-14T05:56:44;10.00;99.90
55369;DHT22;41247;49.736;8.752;2023-05-14T06:00:25;10.20;99.90
55369;DHT22;41247;49.736;8.752;2023-05-14T06:04:05;10.30;99.90
55369;DHT22;41247;49.736;8.752;2023-05-14T06:07:46;10.40;99.90
55369;DHT22;41247;49.736;8.752;2023-05-14T06:11:27;10.60;99.90
55369;DHT22;41247;49.736;8.752;2023-05-14T06:15:07;10.70;99.90
55369;DHT22;41247;49.736;8.752;2023-05-14T06:18:48;10.80;99.90
55369;DHT22;41247;49.736;8.752;2023-05-14T06:22:31;10.90;99.90
55369;DHT22;41247;49.736;8.752;2023-05-14T06:26:18;11.00;99.90
55369;DHT22;41247;49.736;8.752;2023-05-14T06:30:02;11.10;99.90
55369;DHT22;41247;49.736;8.752;2023-05-14T06:33:46;11.10;99.90
55369;DHT22;41247;49.736;8.752;2023-05-14T06:37:27;11.20;99.90
55369;DHT22;41247;49.736;8.752;2023-05-14T06:41:08;11.20;99.90
55369;DHT22;41247;49.736;8.752;2023-05-14T06:44:48;11.20;99.90
55369;DHT22;41247;49.736;8.752;2023-05-14T06:48:29;11.20;99.90
55369;DHT22;41247;49.736;8.752;2023-05-14T06:52:10;11.40;99.90
55369;DHT22;41247;49.736;8.752;2023-05-14T06:55:50;11.60;99.90
55369;DHT22;41247;49.736;8.752;2023-05-14T06:59:31;11.80;99.90
55369;DHT22;41247;49.736;8.752;2023-05-14T07:03:12;11.80;99.90
55369;DHT22;41247;49.736;8.752;2023-05-14T07:06:52;11.90;99.90
55369;DHT22;41247;49.736;8.752;2023-05-14T07:10:33;12.10;99.90
55369;DHT22;41247;49.736;8.752;2023-05-14T07:14:13;12.30;99.90
55369;DHT22;41247;49.736;8.752;2023-05-14T07:17:54;12.70;99.90
55369;DHT22;41247;49.736;8.752;2023-05-14T07:21:35;13.00;99.90
55369;DHT22;41247;49.736;8.752;2023-05-14T07:25:15;13.30;99.90
55369;DHT22;41247;49.736;8.752;2023-05-14T07:28:56;13.50;99.90
55369;DHT22;41247;49.736;8.752;2023-05-14T07:32:37;13.70;99.90
55369;DHT22;41247;49.736;8.752;2023-05-14T07:36:17;13.70;99.90
55369;DHT22;41247;49.736;8.752;2023-05-14T07:39:58;13.80;99.90
55369;DHT22;41247;49.736;8.752;2023-05-14T07:43:38;13.80;99.90
55369;DHT22;41247;49.736;8.752;2023-05-14T07:47:19;13.90;99.90
55369;DHT22;41247;49.736;8.752;2023-05-14T07:50:59;14.00;99.90
55369;DHT22;41247;49.736;8.752;2023-05-14T07:54:40;14.10;99.90
55369;DHT22;41247;49.736;8.752;2023-05-14T07:58:21;14.20;99.90
55369;DHT22;41247;49.736;8.752;2023-05-14T08:02:01;14.30;99.90
55369;DHT22;41247;49.736;8.752;2023-05-14T08:05:42;14.50;99.90
55369;DHT22;41247;49.736;8.752;2023-05-14T08:09:22;14.40;99.90
55369;DHT22;41247;49.736;8.752;2023-05-14T08:13:03;14.50;99.90
55369;DHT22;41247;49.736;8.752;2023-05-14T08:16:44;14.40;99.90
55369;DHT22;41247;49.736;8.752;2023-05-14T08:20:24;14.40;99.90
55369;DHT22;41247;49.736;8.752;2023-05-14T08:24:05;14.40;99.90
55369;DHT22;41247;49.736;8.752;2023-05-14T08:27:46;14.40;99.90
55369;DHT22;41247;49.736;8.752;2023-05-14T08:31:26;14.80;99.90
55369;DHT22;41247;49.736;8.752;2023-05-14T08:35:07;14.70;99.90
55369;DHT22;41247;49.736;8.752;2023-05-14T08:38:48;14.70;99.90
55369;DHT22;41247;49.736;8.752;2023-05-14T08:42:28;14.80;99.90
55369;DHT22;41247;49.736;8.752;2023-05-14T08:46:12;15.30;99.90
55369;DHT22;41247;49.736;8.752;2023-05-14T08:50:04;15.40;99.90
55369;DHT22;41247;49.736;8.752;2023-05-14T08:53:46;15.60;99.90
55369;DHT22;41247;49.736;8.752;2023-05-14T08:57:27;15.90;99.90
55369;DHT22;41247;49.736;8.752;2023-05-14T09:01:09;16.10;99.90
55369;DHT22;41247;49.736;8.752;2023-05-14T09:04:54;16.10;99.90
55369;DHT22;41247;49.736;8.752;2023-05-14T09:08:36;16.00;99.90
55369;DHT22;41247;49.736;8.752;2023-05-14T09:12:16;15.80;99.90
55369;DHT22;41247;49.736;8.752;2023-05-14T09:15:57;16.00;99.90
55369;DHT22;41247;49.736;8.752;2023-05-14T09:19:39;16.50;99.90
55369;DHT22;41247;49.736;8.752;2023-05-14T09:23:21;16.90;99.90
55369;DHT22;41247;49.736;8.752;2023-05-14T09:27:01;17.20;99.90
55369;DHT22;41247;49.736;8.752;2023-05-14T09:30:46;17.20;99.90
55369;DHT22;41247;49.736;8.752;2023-05-14T09:34:33;17.40;99.90
55369;DHT22;41247;49.736;8.752;2023-05-14T09:38:15;17.60;99.90
55369;DHT22;41247;49.736;8.752;2023-05-14T09:41:56;17.60;99.90
55369;DHT22;41247;49.736;8.752;2023-05-14T09:45:36;17.60;99.90
55369;DHT22;41247;49.736;8.752;2023-05-14T09:49:17;17.60;99.90
55369;DHT22;41247;49.736;8.752;2023-05-14T09:52:58;17.70;99.90
55369;DHT22;41247;49.736;8.752;2023-05-14T09:56:39;17.70;99.90
55369;DHT22;41247;49.736;8.752;2023-05-14T10:00:21;17.60;99.90
55369;DHT22;41247;49.736;8.752;2023-05-14T10:04:06;17.70;99.90
55369;DHT22;41247;49.736;8.752;2023-05-14T10:07:50;17.80;99.90
55369;DHT22;41247;49.736;8.752;2023-05-14T10:11:36;17.90;99.90
55369;DHT22;41247;49.736;8.752;2023-05-14T10:15:38;18.00;99.90
55369;DHT22;41247;49.736;8.752;2023-05-14T10:19:23;18.20;99.90
55369;DHT22;41247;49.736;8.752;2023-05-14T10:23:05;18.30;99.90
55369;DHT22;41247;49.736;8.752;2023-05-14T10:26:46;18.30;99.90
55369;DHT22;41247;49.736;8.752;2023-05-14T10:30:27;18.20;99.90
55369;DHT22;41247;49.736;8.752;2023-05-14T10:34:37;18.30;99.90
55369;DHT22;41247;49.736;8.752;2023-05-14T10:38:22;18.40;99.90
55369;DHT22;41247;49.736;8.752;2023-05-14T10:42:05;18.50;99.90
55369;DHT22;41247;49.736;8.752;2023-05-14T10:45:47;18.60;99.90
55369;DHT22;41247;49.736;8.752;2023-05-14T10:49:28;18.70;99.90
55369;DHT22;41247;49.736;8.752;2023-05-14T10:53:12;18.90;99.90
55369;DHT22;41247;49.736;8.752;2023-05-14T10:56:53;19.10;99.90
55369;DHT22;41247;49.736;8.752;2023-05-14T11:00:34;19.30;99.90
55369;DHT22;41247;49.736;8.752;2023-05-14T11:04:17;19.60;99.90
55369;DHT22;41247;49.736;8.752;2023-05-14T11:07:58;19.60;99.90
55369;DHT22;41247;49.736;8.752;2023-05-14T11:11:41;19.60;99.90
55369;DHT22;41247;49.736;8.752;2023-05-14T11:15:24;19.50;99.90
55369;DHT22;41247;49.736;8.752;2023-05-14T11:19:05;19.40;99.90
55369;DHT22;41247;49.736;8.752;2023-05-14T11:22:47;19.20;99.90
55369;DHT22;41247;49.736;8.752;2023-05-14T11:26:28;19.10;99.90
55369;DHT22;41247;49.736;8.752;2023-05-14T11:30:12;19.10;99.90
55369;DHT22;41247;49.736;8.752;2023-05-14T11:33:54;19.30;99.90
55369;DHT22;41247;49.736;8.752;2023-05-14T11:37:34;19.40;99.90
55369;DHT22;41247;49.736;8.752;2023-05-14T11:41:15;19.60;99.90
55369;DHT22;41247;49.736;8.752;2023-05-14T11:44:56;19.80;99.90
55369;DHT22;41247;49.736;8.752;2023-05-14T11:48:36;19.70;99.90
55369;DHT22;41247;49.736;8.752;2023-05-14T11:52:17;19.60;99.90
55369;DHT22;41247;49.736;8.752;2023-05-14T11:55:57;19.40;99.90
55369;DHT22;41247;49.736;8.752;2023-05-14T11:59:38;19.50;99.90
55369;DHT22;41247;49.736;8.752;2023-05-14T12:03:20;19.70;99.90
55369;DHT22;41247;49.736;8.752;2023-05-14T12:07:10;19.80;99.90
55369;DHT22;41247;49.736;8.752;2023-05-14T12:10:52;19.70;99.90
55369;DHT22;41247;49.736;8.752;2023-05-14T12:14:36;19.70;99.90
55369;DHT22;41247;49.736;8.752;2023-05-14T12:18:18;19.70;99.90
55369;DHT22;41247;49.736;8.752;2023-05-14T12:22:00;19.90;99.90
55369;DHT22;41247;49.736;8.752;2023-05-14T12:25:49;20.10;99.90
55369;DHT22;41247;49.736;8.752;2023-05-14T12:29:33;20.10;99.90
55369;DHT22;41247;49.736;8.752;2023-05-14T12:33:15;20.20;99.90
55369;DHT22;41247;49.736;8.752;2023-05-14T12:36:55;20.40;99.90
55369;DHT22;41247;49.736;8.752;2023-05-14T12:40:36;20.50;99.90
55369;DHT22;41247;49.736;8.752;2023-05-14T12:44:17;20.70;99.90
55369;DHT22;41247;49.736;8.752;2023-05-14T12:47:57;20.90;99.90
55369;DHT22;41247;49.736;8.752;2023-05-14T12:51:38;21.10;99.90
55369;DHT22;41247;49.736;8.752;2023-05-14T12:55:19;21.00;99.90
55369;DHT22;41247;49.736;8.752;2023-05-14T12:59:01;20.80;99.90
55369;DHT22;41247;49.736;8.752;2023-05-14T13:02:41;20.90;99.90
55369;DHT22;41247;49.736;8.752;2023-05-14T13:06:22;20.70;99.90
55369;DHT22;41247;49.736;8.752;2023-05-14T13:10:03;20.90;99.90
55369;DHT22;41247;49.736;8.752;2023-05-14T13:13:45;21.40;99.90
55369;DHT22;41247;49.736;8.752;2023-05-14T13:17:25;22.00;99.90
55369;DHT22;41247;49.736;8.752;2023-05-14T13:21:06;22.30;99.90
55369;DHT22;41247;49.736;8.752;2023-05-14T13:24:46;22.50;99.90
55369;DHT22;41247;49.736;8.752;2023-05-14T13:28:27;22.60;99.90
55369;DHT22;41247;49.736;8.752;2023-05-14T13:32:08;22.40;99.90
55369;DHT22;41247;49.736;8.752;2023-05-14T13:35:48;22.20;99.90
55369;DHT22;41247;49.736;8.752;2023-05-14T13:39:29;22.00;99.90
55369;DHT22;41247;49.736;8.752;2023-05-14T13:43:09;21.70;99.90
55369;DHT22;41247;49.736;8.752;2023-05-14T13:46:50;21.50;99.90
55369;DHT22;41247;49.736;8.752;2023-05-14T13:50:30;21.40;99.90
55369;DHT22;41247;49.736;8.752;2023-05-14T13:54:11;21.40;99.90
55369;DHT22;41247;49.736;8.752;2023-05-14T13:57:52;21.30;99.90
55369;DHT22;41247;49.736;8.752;2023-05-14T14:01:32;21.20;99.90
55369;DHT22;41247;49.736;8.752;2023-05-14T14:05:13;21.00;99.90
55369;DHT22;41247;49.736;8.752;2023-05-14T14:08:54;20.90;99.90
55369;DHT22;41247;49.736;8.752;2023-05-14T14:12:34;20.60;99.90
55369;DHT22;41247;49.736;8.752;2023-05-14T14:16:15;20.40;99.90
55369;DHT22;41247;49.736;8.752;2023-05-14T14:19:55;20.70;99.90
55369;DHT22;41247;49.736;8.752;2023-05-14T14:23:36;21.30;99.90
55369;DHT22;41247;49.736;8.752;2023-05-14T14:27:17;21.70;99.90
55369;DHT22;41247;49.736;8.752;2023-05-14T14:30:57;22.20;99.90
55369;DHT22;41247;49.736;8.752;2023-05-14T14:34:38;22.60;99.90
55369;DHT22;41247;49.736;8.752;2023-05-14T14:38:18;23.00;99.90
55369;DHT22;41247;49.736;8.752;2023-05-14T14:41:59;23.30;99.90
55369;DHT22;41247;49.736;8.752;2023-05-14T14:45:40;23.50;99.90
55369;DHT22;41247;49.736;8.752;2023-05-14T14:49:20;23.70;99.90
55369;DHT22;41247;49.736;8.752;2023-05-14T14:53:01;23.80;99.90
55369;DHT22;41247;49.736;8.752;2023-05-14T14:56:42;23.80;99.90
55369;DHT22;41247;49.736;8.752;2023-05-14T15:00:22;24.10;99.90
55369;DHT22;41247;49.736;8.752;2023-05-14T15:04:03;24.20;99.90
55369;DHT22;41247;49.736;8.752;2023-05-14T15:07:43;24.30;99.90
55369;DHT22;41247;49.736;8.752;2023-05-14T15:11:24;24.40;99.90
55369;DHT22;41247;49.736;8.752;2023-05-14T15:15:05;24.40;99.90
55369;DHT22;41247;49.736;8.752;2023-05-14T15:18:46;24.70;99.90
55369;DHT22;41247;49.736;8.752;2023-05-14T15:22:27;24.90;99.90
55369;DHT22;41247;49.736;8.752;2023-05-14T15:26:07;25.00;99.90
55369;DHT22;41247;49.736;8.752;2023-05-14T15:29:48;25.20;99.90
55369;DHT22;41247;49.736;8.752;2023-05-14T15:33:29;25.20;99.90
55369;DHT22;41247;49.736;8.752;2023-05-14T15:37:09;25.10;99.90
55369;DHT22;41247;49.736;8.752;2023-05-14T15:40:50;25.00;99.90
55369;DHT22;41247;49.736;8.752;2023-05-14T15:44:30;24.90;99.90
55369;DHT22;41247;49.736;8.752;2023-05-14T15:48:11;24.60;99.90
55369;DHT22;41247;49.736;8.752;2023-05-14T15:51:52;24.10;99.90
55369;DHT22;41247;49.736;8.752;2023-05-14T15:55:32;23.40;99.90
55369;DHT22;41247;49.736;8.752;2023-05-14T15:59:13;23.10;99.90
55369;DHT22;41247;49.736;8.752;2023-05-14T16:02:54;22.80;99.90
55369;DHT22;41247;49.736;8.752;2023-05-14T16:06:34;22.80;99.90
55369;DHT22;41247;49.736;8.752;2023-05-14T16:10:15;22.90;99.90
55369;DHT22;41247;49.736;8.752;2023-05-14T16:13:55;23.20;99.90
55369;DHT22;41247;49.736;8.752;2023-05-14T16:17:36;22.80;99.90
55369;DHT22;41247;49.736;8.752;2023-05-14T16:21:16;22.20;99.90
55369;DHT22;41247;49.736;8.752;2023-05-14T16:24:57;21.80;99.90
55369;DHT22;41247;49.736;8.752;2023-05-14T16:28:38;21.90;99.90
55369;DHT22;41247;49.736;8.752;2023-05-14T16:32:19;21.80;99.90
55369;DHT22;41247;49.736;8.752;2023-05-14T16:35:59;21.70;99.90
55369;DHT22;41247;49.736;8.752;2023-05-14T16:39:40;22.00;99.90
55369;DHT22;41247;49.736;8.752;2023-05-14T16:43:20;22.40;99.90
55369;DHT22;41247;49.736;8.752;2023-05-14T16:47:01;22.40;99.90
55369;DHT22;41247;49.736;8.752;2023-05-14T16:50:41;22.50;99.90
55369;DHT22;41247;49.736;8.752;2023-05-14T16:54:22;22.80;99.90
55369;DHT22;41247;49.736;8.752;2023-05-14T16:58:03;22.30;99.90
55369;DHT22;41247;49.736;8.752;2023-05-14T17:01:43;21.60;99.90
55369;DHT22;41247;49.736;8.752;2023-05-14T17:05:24;21.10;99.90
55369;DHT22;41247;49.736;8.752;2023-05-14T17:09:04;20.70;99.90
55369;DHT22;41247;49.736;8.752;2023-05-14T17:12:45;20.30;99.90
55369;DHT22;41247;49.736;8.752;2023-05-14T17:16:26;19.80;99.90
55369;DHT22;41247;49.736;8.752;2023-05-14T17:20:07;19.20;99.90
55369;DHT22;41247;49.736;8.752;2023-05-14T17:23:48;18.60;99.90
55369;DHT22;41247;49.736;8.752;2023-05-14T17:27:28;18.10;99.90
55369;DHT22;41247;49.736;8.752;2023-05-14T17:31:09;17.70;99.90
55369;DHT22;41247;49.736;8.752;2023-05-14T17:34:49;17.40;99.90
55369;DHT22;41247;49.736;8.752;2023-05-14T17:38:30;17.20;99.90
55369;DHT22;41247;49.736;8.752;2023-05-14T17:42:11;17.00;99.90
55369;DHT22;41247;49.736;8.752;2023-05-14T17:45:51;16.90;99.90
55369;DHT22;41247;49.736;8.752;2023-05-14T17:49:32;16.90;99.90
55369;DHT22;41247;49.736;8.752;2023-05-14T17:53:13;16.80;99.90
55369;DHT22;41247;49.736;8.752;2023-05-14T17:56:53;16.80;99.90
55369;DHT22;41247;49.736;8.752;2023-05-14T18:00:34;16.90;99.90
55369;DHT22;41247;49.736;8.752;2023-05-14T18:04:15;16.70;99.90
55369;DHT22;41247;49.736;8.752;2023-05-14T18:07:55;16.40;99.90
55369;DHT22;41247;49.736;8.752;2023-05-14T18:11:36;16.20;99.90
55369;DHT22;41247;49.736;8.752;2023-05-14T18:15:17;16.00;99.90
55369;DHT22;41247;49.736;8.752;2023-05-14T18:18:57;15.90;99.90
55369;DHT22;41247;49.736;8.752;2023-05-14T18:22:38;15.80;99.90
55369;DHT22;41247;49.736;8.752;2023-05-14T18:26:19;15.60;99.90
55369;DHT22;41247;49.736;8.752;2023-05-14T18:30:00;15.40;99.90
55369;DHT22;41247;49.736;8.752;2023-05-14T18:33:40;15.20;99.90
55369;DHT22;41247;49.736;8.752;2023-05-14T18:37:21;15.10;99.90
55369;DHT22;41247;49.736;8.752;2023-05-14T18:41:01;14.90;99.90
55369;DHT22;41247;49.736;8.752;2023-05-14T18:44:42;14.70;99.90
55369;DHT22;41247;49.736;8.752;2023-05-14T18:48:23;14.50;99.90
55369;DHT22;41247;49.736;8.752;2023-05-14T18:52:04;14.40;99.90
55369;DHT22;41247;49.736;8.752;2023-05-14T18:55:45;14.20;99.90
55369;DHT22;41247;49.736;8.752;2023-05-14T18:59:26;14.10;99.90
55369;DHT22;41247;49.736;8.752;2023-05-14T19:03:06;14.00;99.90
55369;DHT22;41247;49.736;8.752;2023-05-14T19:06:47;13.90;99.90
55369;DHT22;41247;49.736;8.752;2023-05-14T19:10:27;13.80;99.90
55369;DHT22;41247;49.736;8.752;2023-05-14T19:14:08;13.70;99.90
55369;DHT22;41247;49.736;8.752;2023-05-14T19:17:48;13.60;99.90
55369;DHT22;41247;49.736;8.752;2023-05-14T19:21:29;13.50;99.90
55369;DHT22;41247;49.736;8.752;2023-05-14T19:25:10;13.30;99.90
55369;DHT22;41247;49.736;8.752;2023-05-14T19:28:50;13.20;99.90
55369;DHT22;41247;49.736;8.752;2023-05-14T19:32:31;13.10;99.90
55369;DHT22;41247;49.736;8.752;2023-05-14T19:36:11;13.00;99.90
55369;DHT22;41247;49.736;8.752;2023-05-14T19:39:52;13.00;99.90
55369;DHT22;41247;49.736;8.752;2023-05-14T19:43:33;12.90;99.90
55369;DHT22;41247;49.736;8.752;2023-05-14T19:47:13;12.80;99.90
55369;DHT22;41247;49.736;8.752;2023-05-14T19:50:54;12.80;99.90
55369;DHT22;41247;49.736;8.752;2023-05-14T19:54:35;12.70;99.90
55369;DHT22;41247;49.736;8.752;2023-05-14T19:58:15;12.70;99.90
55369;DHT22;41247;49.736;8.752;2023-05-14T20:01:56;12.60;99.90
55369;DHT22;41247;49.736;8.752;2023-05-14T20:05:36;12.60;99.90
55369;DHT22;41247;49.736;8.752;2023-05-14T20:09:17;12.60;99.90
55369;DHT22;41247;49.736;8.752;2023-05-14T20:12:58;12.50;99.90
55369;DHT22;41247;49.736;8.752;2023-05-14T20:16:38;12.50;99.90
55369;DHT22;41247;49.736;8.752;2023-05-14T20:20:19;12.40;99.90
55369;DHT22;41247;49.736;8.752;2023-05-14T20:24:01;12.30;99.90
55369;DHT22;41247;49.736;8.752;2023-05-14T20:27:41;12.20;99.90
55369;DHT22;41247;49.736;8.752;2023-05-14T20:31:22;12.10;99.90
55369;DHT22;41247;49.736;8.752;2023-05-14T20:35:03;12.00;99.90
55369;DHT22;41247;49.736;8.752;2023-05-14T20:38:44;11.90;99.90
55369;DHT22;41247;49.736;8.752;2023-05-14T20:42:25;11.80;99.90
55369;DHT22;41247;49.736;8.752;2023-05-14T20:46:06;11.70;99.90
55369;DHT22;41247;49.736;8.752;2023-05-14T20:49:46;11.70;99.90
55369;DHT22;41247;49.736;8.752;2023-05-14T20:53:27;11.60;99.90
55369;DHT22;41247;49.736;8.752;2023-05-14T20:57:09;11.60;99.90
55369;DHT22;41247;49.736;8.752;2023-05-14T21:00:50;11.60;99.90
55369;DHT22;41247;49.736;8.752;2023-05-14T21:04:32;11.50;99.90
55369;DHT22;41247;49.736;8.752;2023-05-14T21:08:13;11.50;99.90
55369;DHT22;41247;49.736;8.752;2023-05-14T21:11:55;11.50;99.90
55369;DHT22;41247;49.736;8.752;2023-05-14T21:15:36;11.50;99.90
55369;DHT22;41247;49.736;8.752;2023-05-14T21:19:16;11.50;99.90
55369;DHT22;41247;49.736;8.752;2023-05-14T21:22:57;11.40;99.90
55369;DHT22;41247;49.736;8.752;2023-05-14T21:26:38;11.40;99.90
55369;DHT22;41247;49.736;8.752;2023-05-14T21:30:18;11.30;99.90
55369;DHT22;41247;49.736;8.752;2023-05-14T21:33:59;11.10;99.90
55369;DHT22;41247;49.736;8.752;2023-05-14T21:37:40;11.00;99.90
55369;DHT22;41247;49.736;8.752;2023-05-14T21:41:20;11.00;99.90
55369;DHT22;41247;49.736;8.752;2023-05-14T21:45:01;10.90;99.90
55369;DHT22;41247;49.736;8.752;2023-05-14T21:48:42;10.70;99.90
55369;DHT22;41247;49.736;8.752;2023-05-14T21:52:22;10.70;99.90
55369;DHT22;41247;49.736;8.752;2023-05-14T21:56:03;10.60;99.90
55369;DHT22;41247;49.736;8.752;2023-05-14T21:59:44;10.60;99.90
55369;DHT22;41247;49.736;8.752;2023-05-14T22:03:25;10.50;99.90
55369;DHT22;41247;49.736;8.752;2023-05-14T22:07:06;10.50;99.90
55369;DHT22;41247;49.736;8.752;2023-05-14T22:10:46;10.50;99.90
55369;DHT22;41247;49.736;8.752;2023-05-14T22:14:27;10.40;99.90
55369;DHT22;41247;49.736;8.752;2023-05-14T22:18:08;10.40;99.90
55369;DHT22;41247;49.736;8.752;2023-05-14T22:21:48;10.40;99.90
55369;DHT22;41247;49.736;8.752;2023-05-14T22:25:29;10.40;99.90
55369;DHT22;41247;49.736;8.752;2023-05-14T22:29:10;10.30;99.90
55369;DHT22;41247;49.736;8.752;2023-05-14T22:32:50;10.20;99.90
55369;DHT22;41247;49.736;8.752;2023-05-14T22:36:31;10.10;99.90
55369;DHT22;41247;49.736;8.752;2023-05-14T22:40:12;10.10;99.90
55369;DHT22;41247;49.736;8.752;2023-05-14T22:43:52;10.00;99.90
55369;DHT22;41247;49.736;8.752;2023-05-14T22:47:33;9.90;99.90
55369;DHT22;41247;49.736;8.752;2023-05-14T22:51:14;9.80;99.90
55369;DHT22;41247;49.736;8.752;2023-05-14T22:54:55;9.80;99.90
55369;DHT22;41247;49.736;8.752;2023-05-14T22:58:35;9.70;99.90
55369;DHT22;41247;49.736;8.752;2023-05-14T23:02:16;9.60;99.90
55369;DHT22;41247;49.736;8.752;2023-05-14T23:05:56;9.60;99.90
55369;DHT22;41247;49.736;8.752;2023-05-14T23:09:39;9.60;99.90
55369;DHT22;41247;49.736;8.752;2023-05-14T23:13:20;9.60;99.90
55369;DHT22;41247;49.736;8.752;2023-05-14T23:17:00;9.50;99.90
55369;DHT22;41247;49.736;8.752;2023-05-14T23:20:41;9.50;99.90
55369;DHT22;41247;49.736;8.752;2023-05-14T23:24:21;9.50;99.90
55369;DHT22;41247;49.736;8.752;2023-05-14T23:28:02;9.50;99.90